sensor_id;sensor_type;location;lat;lon;timestamp;temperature;humidity
11764;DHT22;5939;56.522;14.950;2022-12-28T00:01:36;3.20;99.90
11764;DHT22;5939;56.522;14.950;2022-12-28T00:04:04;3.20;99.90
11764;DHT22;5939;56.522;14.950;2022-12-28T00:06:30;3.20;99.90
11764;DHT22;5939;56.522;14.950;2022-12-28T00:08:57;3.20;99.90
11764;DHT22;5939;56.522;14.950;2022-12-28T00:11:24;3.20;99.90
11764;DHT22;5939;56.522;14.950;2022-12-28T00:13:50;3.20;99.90
11764;DHT22;5939;56.522;14.950;2022-12-28T00:16:31;3.20;99.90
11764;DHT22;5939;56.522;14.950;2022-12-28T00:18:58;3.20;99.90
11764;DHT22;5939;56.522;14.950;2022-12-28T00:21:25;3.20;99.90
11764;DHT22;5939;56.522;14.950;2022-12-28T00:23:53;3.20;99.90
11764;DHT22;5939;56.522;14.950;2022-12-28T00:26:19;3.20;99.90
11764;DHT22;5939;56.522;14.950;2022-12-28T00:28:46;3.20;99.90
11764;DHT22;5939;56.522;14.950;2022-12-28T00:31:12;3.20;99.90
11764;DHT22;5939;56.522;14.950;2022-12-28T00:33:38;3.20;99.90
11764;DHT22;5939;56.522;14.950;2022-12-28T00:36:04;3.20;99.90
11764;DHT22;5939;56.522;14.950;2022-12-28T00:38:30;3.20;99.90
11764;DHT22;5939;56.522;14.950;2022-12-28T00:40:57;3.20;99.90
11764;DHT22;5939;56.522;14.950;2022-12-28T00:43:23;3.20;99.90
11764;DHT22;5939;56.522;14.950;2022-12-28T00:45:49;3.20;99.90
11764;DHT22;5939;56.522;14.950;2022-12-28T00:48:15;3.20;99.90
11764;DHT22;5939;56.522;14.950;2022-12-28T00:50:42;3.20;99.90
11764;DHT22;5939;56.522;14.950;2022-12-28T00:53:08;3.20;99.90
11764;DHT22;5939;56.522;14.950;2022-12-28T00:55:34;3.20;99.90
11764;DHT22;5939;56.522;14.950;2022-12-28T00:58:00;3.20;99.90
11764;DHT22;5939;56.522;14.950;2022-12-28T01:00:26;3.20;99.90
11764;DHT22;5939;56.522;14.950;2022-12-28T01:02:52;3.20;99.90
11764;DHT22;5939;56.522;14.950;2022-12-28T03:04:34;3.10;99.90
11764;DHT22;5939;56.522;14.950;2022-12-28T03:13:09;3.10;99.90
11764;DHT22;5939;56.522;14.950;2022-12-28T03:15:59;3.20;99.90
11764;DHT22;5939;56.522;14.950;2022-12-28T03:18:27;3.20;99.90
11764;DHT22;5939;56.522;14.950;2022-12-28T03:21:14;3.20;99.90
11764;DHT22;5939;56.522;14.950;2022-12-28T03:24:00;3.20;99.90
11764;DHT22;5939;56.522;14.950;2022-12-28T03:26:47;3.20;99.90
11764;DHT22;5939;56.522;14.950;2022-12-28T03:29:39;3.20;99.90
11764;DHT22;5939;56.522;14.950;2022-12-28T03:32:25;3.20;99.90
11764;DHT22;5939;56.522;14.950;2022-12-28T03:34:50;3.20;99.90
11764;DHT22;5939;56.522;14.950;2022-12-28T03:37:21;3.20;99.90
11764;DHT22;5939;56.522;14.950;2022-12-28T03:42:29;3.20;99.90
11764;DHT22;5939;56.522;14.950;2022-12-28T03:48:23;3.30;99.90
11764;DHT22;5939;56.522;14.950;2022-12-28T03:50:50;3.30;99.90
11764;DHT22;5939;56.522;14.950;2022-12-28T03:53:20;3.30;99.90
11764;DHT22;5939;56.522;14.950;2022-12-28T03:55:47;3.30;99.90
11764;DHT22;5939;56.522;14.950;2022-12-28T03:58:13;3.30;99.90
11764;DHT22;5939;56.522;14.950;2022-12-28T04:00:38;3.30;99.90
11764;DHT22;5939;56.522;14.950;2022-12-28T04:03:04;4.60;99.90
11764;DHT22;5939;56.522;14.950;2022-12-28T04:05:30;3.90;99.90
11764;DHT22;5939;56.522;14.950;2022-12-28T04:07:55;3.80;99.90
11764;DHT22;5939;56.522;14.950;2022-12-28T04:10:21;3.80;99.90
11764;DHT22;5939;56.522;14.950;2022-12-28T04:12:47;4.20;99.90
11764;DHT22;5939;56.522;14.950;2022-12-28T04:15:12;3.30;99.90
11764;DHT22;5939;56.522;14.950;2022-12-28T04:17:38;3.30;99.90
11764;DHT22;5939;56.522;14.950;2022-12-28T04:20:04;3.40;99.90
11764;DHT22;5939;56.522;14.950;2022-12-28T04:22:30;3.30;99.90
11764;DHT22;5939;56.522;14.950;2022-12-28T04:24:56;3.40;99.90
11764;DHT22;5939;56.522;14.950;2022-12-28T04:27:21;3.30;99.90
11764;DHT22;5939;56.522;14.950;2022-12-28T04:29:48;3.30;99.90
11764;DHT22;5939;56.522;14.950;2022-12-28T04:32:14;3.30;99.90
11764;DHT22;5939;56.522;14.950;2022-12-28T04:34:40;3.30;99.90
11764;DHT22;5939;56.522;14.950;2022-12-28T04:37:05;4.00;99.90
11764;DHT22;5939;56.522;14.950;2022-12-28T04:39:31;3.30;99.90
11764;DHT22;5939;56.522;14.950;2022-12-28T04:41:57;3.30;99.90
11764;DHT22;5939;56.522;14.950;2022-12-28T04:44:22;3.30;99.90
11764;DHT22;5939;56.522;14.950;2022-12-28T04:46:48;3.30;99.90
11764;DHT22;5939;56.522;14.950;2022-12-28T04:49:13;3.30;99.90
11764;DHT22;5939;56.522;14.950;2022-12-28T04:51:39;3.30;99.90
11764;DHT22;5939;56.522;14.950;2022-12-28T04:54:05;3.50;99.90
11764;DHT22;5939;56.522;14.950;2022-12-28T04:56:31;3.90;99.90
11764;DHT22;5939;56.522;14.950;2022-12-28T04:58:58;3.30;99.90
11764;DHT22;5939;56.522;14.950;2022-12-28T05:01:25;3.30;99.90
11764;DHT22;5939;56.522;14.950;2022-12-28T05:03:52;3.30;99.90
11764;DHT22;5939;56.522;14.950;2022-12-28T05:06:19;3.30;99.90
11764;DHT22;5939;56.522;14.950;2022-12-28T05:08:46;3.30;99.90
11764;DHT22;5939;56.522;14.950;2022-12-28T05:11:17;4.10;99.90
11764;DHT22;5939;56.522;14.950;2022-12-28T05:13:43;3.40;99.90
11764;DHT22;5939;56.522;14.950;2022-12-28T05:16:11;3.30;99.90
11764;DHT22;5939;56.522;14.950;2022-12-28T05:18:37;3.30;99.90
11764;DHT22;5939;56.522;14.950;2022-12-28T05:23:29;3.30;99.90
11764;DHT22;5939;56.522;14.950;2022-12-28T05:25:56;3.80;99.90
11764;DHT22;5939;56.522;14.950;2022-12-28T05:28:22;3.50;99.90
11764;DHT22;5939;56.522;14.950;2022-12-28T05:30:48;3.40;99.90
11764;DHT22;5939;56.522;14.950;2022-12-28T05:33:13;3.30;99.90
11764;DHT22;5939;56.522;14.950;2022-12-28T05:35:39;3.40;99.90
11764;DHT22;5939;56.522;14.950;2022-12-28T05:38:05;3.40;99.90
11764;DHT22;5939;56.522;14.950;2022-12-28T05:40:30;3.30;99.90
11764;DHT22;5939;56.522;14.950;2022-12-28T05:42:56;3.40;99.90
11764;DHT22;5939;56.522;14.950;2022-12-28T05:45:22;3.40;99.90
11764;DHT22;5939;56.522;14.950;2022-12-28T05:47:47;3.40;99.90
11764;DHT22;5939;56.522;14.950;2022-12-28T05:50:13;3.30;99.90
11764;DHT22;5939;56.522;14.950;2022-12-28T05:52:39;3.40;99.90
11764;DHT22;5939;56.522;14.950;2022-12-28T05:55:05;3.40;99.90
11764;DHT22;5939;56.522;14.950;2022-12-28T05:57:31;3.40;99.90
11764;DHT22;5939;56.522;14.950;2022-12-28T05:59:56;3.40;99.90
11764;DHT22;5939;56.522;14.950;2022-12-28T06:02:22;3.40;99.90
11764;DHT22;5939;56.522;14.950;2022-12-28T06:04:52;3.40;99.90
11764;DHT22;5939;56.522;14.950;2022-12-28T06:07:18;4.00;99.90
11764;DHT22;5939;56.522;14.950;2022-12-28T06:09:43;4.10;99.90
11764;DHT22;5939;56.522;14.950;2022-12-28T06:12:09;4.40;99.90
11764;DHT22;5939;56.522;14.950;2022-12-28T06:14:35;3.40;99.90
11764;DHT22;5939;56.522;14.950;2022-12-28T06:17:00;3.40;99.90
11764;DHT22;5939;56.522;14.950;2022-12-28T06:19:26;3.40;99.90
11764;DHT22;5939;56.522;14.950;2022-12-28T06:21:52;3.40;99.90
11764;DHT22;5939;56.522;14.950;2022-12-28T06:24:17;3.40;99.90
11764;DHT22;5939;56.522;14.950;2022-12-28T06:26:43;3.40;99.90
11764;DHT22;5939;56.522;14.950;2022-12-28T06:29:10;3.60;99.90
11764;DHT22;5939;56.522;14.950;2022-12-28T06:31:38;3.40;99.90
11764;DHT22;5939;56.522;14.950;2022-12-28T06:34:06;3.50;99.90
11764;DHT22;5939;56.522;14.950;2022-12-28T06:36:35;3.50;99.90
11764;DHT22;5939;56.522;14.950;2022-12-28T06:39:03;3.50;99.90
11764;DHT22;5939;56.522;14.950;2022-12-28T06:41:29;3.50;99.90
11764;DHT22;5939;56.522;14.950;2022-12-28T06:43:56;3.50;99.90
11764;DHT22;5939;56.522;14.950;2022-12-28T06:46:24;4.10;99.90
11764;DHT22;5939;56.522;14.950;2022-12-28T06:48:50;3.50;99.90
11764;DHT22;5939;56.522;14.950;2022-12-28T06:51:25;3.70;99.90
11764;DHT22;5939;56.522;14.950;2022-12-28T06:53:51;3.50;99.90
11764;DHT22;5939;56.522;14.950;2022-12-28T06:56:20;3.50;99.90
11764;DHT22;5939;56.522;14.950;2022-12-28T06:58:47;3.50;99.90
11764;DHT22;5939;56.522;14.950;2022-12-28T07:01:15;3.50;99.90
11764;DHT22;5939;56.522;14.950;2022-12-28T07:03:42;3.50;99.90
11764;DHT22;5939;56.522;14.950;2022-12-28T07:06:09;3.50;99.90
11764;DHT22;5939;56.522;14.950;2022-12-28T07:08:34;3.50;99.90
11764;DHT22;5939;56.522;14.950;2022-12-28T07:11:12;3.70;99.90
11764;DHT22;5939;56.522;14.950;2022-12-28T07:13:37;3.50;99.90
11764;DHT22;5939;56.522;14.950;2022-12-28T07:16:06;3.60;99.90
11764;DHT22;5939;56.522;14.950;2022-12-28T07:18:32;3.60;99.90
11764;DHT22;5939;56.522;14.950;2022-12-28T07:21:03;3.60;99.90
11764;DHT22;5939;56.522;14.950;2022-12-28T07:23:29;3.60;99.90
11764;DHT22;5939;56.522;14.950;2022-12-28T07:26:07;3.60;99.90
11764;DHT22;5939;56.522;14.950;2022-12-28T07:28:39;3.60;99.90
11764;DHT22;5939;56.522;14.950;2022-12-28T07:31:11;3.80;99.90
11764;DHT22;5939;56.522;14.950;2022-12-28T07:33:38;3.60;99.90
11764;DHT22;5939;56.522;14.950;2022-12-28T07:36:05;3.60;99.90
11764;DHT22;5939;56.522;14.950;2022-12-28T07:38:31;3.60;99.90
11764;DHT22;5939;56.522;14.950;2022-12-28T07:41:11;3.60;99.90
11764;DHT22;5939;56.522;14.950;2022-12-28T07:43:37;3.70;99.90
11764;DHT22;5939;56.522;14.950;2022-12-28T07:46:15;3.60;99.90
11764;DHT22;5939;56.522;14.950;2022-12-28T07:48:42;3.60;99.90
11764;DHT22;5939;56.522;14.950;2022-12-28T07:51:19;3.60;99.90
11764;DHT22;5939;56.522;14.950;2022-12-28T07:53:47;3.70;99.90
11764;DHT22;5939;56.522;14.950;2022-12-28T07:56:13;3.70;99.90
11764;DHT22;5939;56.522;14.950;2022-12-28T07:58:39;3.60;99.90
11764;DHT22;5939;56.522;14.950;2022-12-28T08:01:10;3.70;99.90
11764;DHT22;5939;56.522;14.950;2022-12-28T08:03:36;3.70;99.90
11764;DHT22;5939;56.522;14.950;2022-12-28T08:06:07;3.70;99.90
11764;DHT22;5939;56.522;14.950;2022-12-28T08:08:34;3.70;99.90
11764;DHT22;5939;56.522;14.950;2022-12-28T08:11:05;3.70;99.90
11764;DHT22;5939;56.522;14.950;2022-12-28T08:13:32;3.80;99.90
11764;DHT22;5939;56.522;14.950;2022-12-28T08:15:58;3.70;99.90
11764;DHT22;5939;56.522;14.950;2022-12-28T08:18:24;3.70;99.90
11764;DHT22;5939;56.522;14.950;2022-12-28T08:20:50;3.70;99.90
11764;DHT22;5939;56.522;14.950;2022-12-28T08:23:16;3.70;99.90
11764;DHT22;5939;56.522;14.950;2022-12-28T08:25:41;3.70;99.90
11764;DHT22;5939;56.522;14.950;2022-12-28T08:28:07;3.70;99.90
11764;DHT22;5939;56.522;14.950;2022-12-28T08:30:33;3.70;99.90
11764;DHT22;5939;56.522;14.950;2022-12-28T08:32:59;3.70;99.90
11764;DHT22;5939;56.522;14.950;2022-12-28T08:35:24;3.70;99.90
11764;DHT22;5939;56.522;14.950;2022-12-28T08:37:54;3.70;99.90
11764;DHT22;5939;56.522;14.950;2022-12-28T08:40:20;4.60;99.90
11764;DHT22;5939;56.522;14.950;2022-12-28T08:42:46;4.40;99.90
11764;DHT22;5939;56.522;14.950;2022-12-28T08:45:12;3.80;99.90
11764;DHT22;5939;56.522;14.950;2022-12-28T08:47:38;4.20;99.90
11764;DHT22;5939;56.522;14.950;2022-12-28T08:50:04;3.70;99.90
11764;DHT22;5939;56.522;14.950;2022-12-28T08:52:30;3.70;99.90
11764;DHT22;5939;56.522;14.950;2022-12-28T08:54:56;3.70;99.90
11764;DHT22;5939;56.522;14.950;2022-12-28T08:57:21;4.80;99.90
11764;DHT22;5939;56.522;14.950;2022-12-28T08:59:47;3.90;99.90
11764;DHT22;5939;56.522;14.950;2022-12-28T09:02:13;3.80;99.90
11764;DHT22;5939;56.522;14.950;2022-12-28T09:04:38;4.50;99.90
11764;DHT22;5939;56.522;14.950;2022-12-28T09:07:05;3.80;99.90
11764;DHT22;5939;56.522;14.950;2022-12-28T09:09:31;5.10;99.90
11764;DHT22;5939;56.522;14.950;2022-12-28T09:11:58;3.90;99.90
11764;DHT22;5939;56.522;14.950;2022-12-28T09:14:24;3.90;99.90
11764;DHT22;5939;56.522;14.950;2022-12-28T09:16:51;3.90;99.90
11764;DHT22;5939;56.522;14.950;2022-12-28T09:19:17;3.80;99.90
11764;DHT22;5939;56.522;14.950;2022-12-28T09:21:43;3.80;99.90
11764;DHT22;5939;56.522;14.950;2022-12-28T09:24:11;3.90;99.90
11764;DHT22;5939;56.522;14.950;2022-12-28T09:26:38;4.10;99.90
11764;DHT22;5939;56.522;14.950;2022-12-28T09:29:06;3.80;99.90
11764;DHT22;5939;56.522;14.950;2022-12-28T09:31:33;3.90;99.90
11764;DHT22;5939;56.522;14.950;2022-12-28T09:34:05;3.80;99.90
11764;DHT22;5939;56.522;14.950;2022-12-28T09:36:33;3.90;99.90
11764;DHT22;5939;56.522;14.950;2022-12-28T09:39:02;4.00;99.90
11764;DHT22;5939;56.522;14.950;2022-12-28T09:42:02;3.80;99.90
11764;DHT22;5939;56.522;14.950;2022-12-28T09:45:03;3.80;99.90
11764;DHT22;5939;56.522;14.950;2022-12-28T09:47:43;3.80;99.90
11764;DHT22;5939;56.522;14.950;2022-12-28T09:55:16;3.90;99.90
11764;DHT22;5939;56.522;14.950;2022-12-28T09:57:53;4.10;99.90
11764;DHT22;5939;56.522;14.950;2022-12-28T10:00:45;4.20;99.90
11764;DHT22;5939;56.522;14.950;2022-12-28T10:03:34;3.90;99.90
11764;DHT22;5939;56.522;14.950;2022-12-28T10:06:01;3.90;99.90
11764;DHT22;5939;56.522;14.950;2022-12-28T10:08:28;3.90;99.90
11764;DHT22;5939;56.522;14.950;2022-12-28T10:10:57;4.00;99.90
11764;DHT22;5939;56.522;14.950;2022-12-28T10:13:26;3.90;99.90
11764;DHT22;5939;56.522;14.950;2022-12-28T10:15:53;3.90;99.90
11764;DHT22;5939;56.522;14.950;2022-12-28T10:18:25;4.20;99.90
11764;DHT22;5939;56.522;14.950;2022-12-28T10:20:52;3.90;99.90
11764;DHT22;5939;56.522;14.950;2022-12-28T10:23:26;3.90;99.90
11764;DHT22;5939;56.522;14.950;2022-12-28T10:25:55;4.00;99.90
11764;DHT22;5939;56.522;14.950;2022-12-28T10:28:25;3.90;99.90
11764;DHT22;5939;56.522;14.950;2022-12-28T10:31:07;3.90;99.90
11764;DHT22;5939;56.522;14.950;2022-12-28T10:33:38;3.90;99.90
11764;DHT22;5939;56.522;14.950;2022-12-28T10:36:09;3.90;99.90
11764;DHT22;5939;56.522;14.950;2022-12-28T10:38:35;3.90;99.90
11764;DHT22;5939;56.522;14.950;2022-12-28T10:41:05;4.30;99.90
11764;DHT22;5939;56.522;14.950;2022-12-28T10:43:43;4.00;99.90
11764;DHT22;5939;56.522;14.950;2022-12-28T10:46:23;3.90;99.90
11764;DHT22;5939;56.522;14.950;2022-12-28T10:48:52;4.00;99.90
11764;DHT22;5939;56.522;14.950;2022-12-28T10:51:23;4.00;99.90
11764;DHT22;5939;56.522;14.950;2022-12-28T10:53:56;4.00;99.90
11764;DHT22;5939;56.522;14.950;2022-12-28T10:56:27;4.00;99.90
11764;DHT22;5939;56.522;14.950;2022-12-28T10:59:23;4.00;99.90
11764;DHT22;5939;56.522;14.950;2022-12-28T11:01:50;4.00;99.90
11764;DHT22;5939;56.522;14.950;2022-12-28T11:04:21;4.00;99.90
11764;DHT22;5939;56.522;14.950;2022-12-28T11:07:00;4.00;99.90
11764;DHT22;5939;56.522;14.950;2022-12-28T11:09:27;4.00;99.90
11764;DHT22;5939;56.522;14.950;2022-12-28T11:11:56;5.00;99.90
11764;DHT22;5939;56.522;14.950;2022-12-28T11:14:39;4.00;99.90
11764;DHT22;5939;56.522;14.950;2022-12-28T11:17:25;4.00;99.90
11764;DHT22;5939;56.522;14.950;2022-12-28T11:20:05;4.00;99.90
11764;DHT22;5939;56.522;14.950;2022-12-28T11:22:32;4.00;99.90
11764;DHT22;5939;56.522;14.950;2022-12-28T11:24:59;4.10;99.90
11764;DHT22;5939;56.522;14.950;2022-12-28T11:27:26;4.10;99.90
11764;DHT22;5939;56.522;14.950;2022-12-28T11:29:53;4.00;99.90
11764;DHT22;5939;56.522;14.950;2022-12-28T11:32:29;4.00;99.90
11764;DHT22;5939;56.522;14.950;2022-12-28T11:34:57;5.10;99.90
11764;DHT22;5939;56.522;14.950;2022-12-28T11:37:23;4.10;99.90
11764;DHT22;5939;56.522;14.950;2022-12-28T11:39:52;4.10;99.90
11764;DHT22;5939;56.522;14.950;2022-12-28T11:45:50;4.10;99.90
11764;DHT22;5939;56.522;14.950;2022-12-28T11:47:50;4.10;99.90
11764;DHT22;5939;56.522;14.950;2022-12-28T11:56:12;4.10;99.90
11764;DHT22;5939;56.522;14.950;2022-12-28T12:12:00;4.10;99.90
11764;DHT22;5939;56.522;14.950;2022-12-28T12:14:34;4.10;99.90
11764;DHT22;5939;56.522;14.950;2022-12-28T12:17:04;4.40;99.90
11764;DHT22;5939;56.522;14.950;2022-12-28T12:19:34;4.10;99.90
11764;DHT22;5939;56.522;14.950;2022-12-28T12:22:15;4.10;99.90
11764;DHT22;5939;56.522;14.950;2022-12-28T12:27:55;4.20;99.90
11764;DHT22;5939;56.522;14.950;2022-12-28T12:30:22;4.10;99.90
11764;DHT22;5939;56.522;14.950;2022-12-28T12:32:55;4.20;99.90
11764;DHT22;5939;56.522;14.950;2022-12-28T12:35:28;4.20;99.90
11764;DHT22;5939;56.522;14.950;2022-12-28T12:41:15;4.20;99.90
11764;DHT22;5939;56.522;14.950;2022-12-28T12:47:17;4.20;99.90
11764;DHT22;5939;56.522;14.950;2022-12-28T12:53:04;4.20;99.90
11764;DHT22;5939;56.522;14.950;2022-12-28T13:04:33;4.20;99.90
11764;DHT22;5939;56.522;14.950;2022-12-28T13:07:02;4.20;99.90
11764;DHT22;5939;56.522;14.950;2022-12-28T13:09:32;4.20;99.90
11764;DHT22;5939;56.522;14.950;2022-12-28T13:12:00;4.30;99.90
11764;DHT22;5939;56.522;14.950;2022-12-28T13:14:26;4.50;99.90
11764;DHT22;5939;56.522;14.950;2022-12-28T13:16:55;4.30;99.90
11764;DHT22;5939;56.522;14.950;2022-12-28T13:19:23;4.20;99.90
11764;DHT22;5939;56.522;14.950;2022-12-28T13:21:50;4.30;99.90
11764;DHT22;5939;56.522;14.950;2022-12-28T13:24:33;4.20;99.90
11764;DHT22;5939;56.522;14.950;2022-12-28T13:27:00;4.30;99.90
11764;DHT22;5939;56.522;14.950;2022-12-28T13:29:31;4.20;99.90
11764;DHT22;5939;56.522;14.950;2022-12-28T13:31:58;4.30;99.90
11764;DHT22;5939;56.522;14.950;2022-12-28T13:34:26;4.30;99.90
11764;DHT22;5939;56.522;14.950;2022-12-28T13:36:55;4.30;99.90
11764;DHT22;5939;56.522;14.950;2022-12-28T13:39:32;4.30;99.90
11764;DHT22;5939;56.522;14.950;2022-12-28T13:42:20;4.30;99.90
11764;DHT22;5939;56.522;14.950;2022-12-28T13:50:03;4.30;99.90
11764;DHT22;5939;56.522;14.950;2022-12-28T13:55:06;4.30;99.90
11764;DHT22;5939;56.522;14.950;2022-12-28T13:57:36;4.30;99.90
11764;DHT22;5939;56.522;14.950;2022-12-28T14:00:04;4.60;99.90
11764;DHT22;5939;56.522;14.950;2022-12-28T14:02:30;4.30;99.90
11764;DHT22;5939;56.522;14.950;2022-12-28T14:04:57;4.30;99.90
11764;DHT22;5939;56.522;14.950;2022-12-28T14:07:25;4.30;99.90
11764;DHT22;5939;56.522;14.950;2022-12-28T14:09:53;4.50;99.90
11764;DHT22;5939;56.522;14.950;2022-12-28T14:12:19;4.30;99.90
11764;DHT22;5939;56.522;14.950;2022-12-28T14:14:45;4.40;99.90
11764;DHT22;5939;56.522;14.950;2022-12-28T14:17:12;4.30;99.90
11764;DHT22;5939;56.522;14.950;2022-12-28T14:19:38;5.00;99.90
11764;DHT22;5939;56.522;14.950;2022-12-28T14:22:31;4.50;99.90
11764;DHT22;5939;56.522;14.950;2022-12-28T14:25:17;4.30;99.90
11764;DHT22;5939;56.522;14.950;2022-12-28T14:27:56;4.30;99.90
11764;DHT22;5939;56.522;14.950;2022-12-28T14:30:49;4.40;99.90
11764;DHT22;5939;56.522;14.950;2022-12-28T14:33:36;4.30;99.90
11764;DHT22;5939;56.522;14.950;2022-12-28T14:36:04;4.30;99.90
11764;DHT22;5939;56.522;14.950;2022-12-28T14:38:39;4.30;99.90
11764;DHT22;5939;56.522;14.950;2022-12-28T14:41:05;4.40;99.90
11764;DHT22;5939;56.522;14.950;2022-12-28T14:43:35;4.50;99.90
11764;DHT22;5939;56.522;14.950;2022-12-28T14:46:33;4.50;99.90
11764;DHT22;5939;56.522;14.950;2022-12-28T14:54:49;4.40;99.90
11764;DHT22;5939;56.522;14.950;2022-12-28T14:57:21;4.40;99.90
11764;DHT22;5939;56.522;14.950;2022-12-28T14:59:56;4.40;99.90
11764;DHT22;5939;56.522;14.950;2022-12-28T15:04:58;4.40;99.90
11764;DHT22;5939;56.522;14.950;2022-12-28T15:07:24;4.40;99.90
11764;DHT22;5939;56.522;14.950;2022-12-28T15:09:50;4.40;99.90
11764;DHT22;5939;56.522;14.950;2022-12-28T15:12:19;4.40;99.90
11764;DHT22;5939;56.522;14.950;2022-12-28T15:14:47;4.90;99.90
11764;DHT22;5939;56.522;14.950;2022-12-28T15:17:13;5.60;99.90
11764;DHT22;5939;56.522;14.950;2022-12-28T15:19:41;4.40;99.90
11764;DHT22;5939;56.522;14.950;2022-12-28T15:22:07;5.50;99.90
11764;DHT22;5939;56.522;14.950;2022-12-28T15:24:33;4.50;99.90
11764;DHT22;5939;56.522;14.950;2022-12-28T15:26:59;4.40;99.90
11764;DHT22;5939;56.522;14.950;2022-12-28T15:29:24;4.40;99.90
11764;DHT22;5939;56.522;14.950;2022-12-28T15:31:50;4.50;99.90
11764;DHT22;5939;56.522;14.950;2022-12-28T15:34:16;5.40;99.90
11764;DHT22;5939;56.522;14.950;2022-12-28T15:36:41;4.40;99.90
11764;DHT22;5939;56.522;14.950;2022-12-28T15:39:11;5.70;99.90
11764;DHT22;5939;56.522;14.950;2022-12-28T15:41:37;4.50;99.90
11764;DHT22;5939;56.522;14.950;2022-12-28T15:44:17;4.50;99.90
11764;DHT22;5939;56.522;14.950;2022-12-28T15:46:47;4.70;99.90
11764;DHT22;5939;56.522;14.950;2022-12-28T15:49:16;4.90;99.90
11764;DHT22;5939;56.522;14.950;2022-12-28T15:51:43;4.60;99.90
11764;DHT22;5939;56.522;14.950;2022-12-28T15:54:10;4.50;99.90
11764;DHT22;5939;56.522;14.950;2022-12-28T15:56:38;4.60;99.90
11764;DHT22;5939;56.522;14.950;2022-12-28T15:59:12;4.60;99.90
11764;DHT22;5939;56.522;14.950;2022-12-28T16:01:39;4.50;99.90
11764;DHT22;5939;56.522;14.950;2022-12-28T16:04:06;4.70;99.90
11764;DHT22;5939;56.522;14.950;2022-12-28T16:06:32;4.50;99.90
11764;DHT22;5939;56.522;14.950;2022-12-28T16:08:59;4.80;99.90
11764;DHT22;5939;56.522;14.950;2022-12-28T16:11:27;4.50;99.90
11764;DHT22;5939;56.522;14.950;2022-12-28T16:13:57;4.50;99.90
11764;DHT22;5939;56.522;14.950;2022-12-28T16:16:24;4.50;99.90
11764;DHT22;5939;56.522;14.950;2022-12-28T16:18:53;4.60;99.90
11764;DHT22;5939;56.522;14.950;2022-12-28T16:21:20;4.80;99.90
11764;DHT22;5939;56.522;14.950;2022-12-28T16:23:46;4.60;99.90
11764;DHT22;5939;56.522;14.950;2022-12-28T16:26:12;4.60;99.90
11764;DHT22;5939;56.522;14.950;2022-12-28T16:28:39;4.50;99.90
11764;DHT22;5939;56.522;14.950;2022-12-28T16:31:06;4.60;99.90
11764;DHT22;5939;56.522;14.950;2022-12-28T16:33:32;4.60;99.90
11764;DHT22;5939;56.522;14.950;2022-12-28T16:35:59;4.70;99.90
11764;DHT22;5939;56.522;14.950;2022-12-28T16:38:27;4.60;99.90
11764;DHT22;5939;56.522;14.950;2022-12-28T16:40:55;5.20;99.90
11764;DHT22;5939;56.522;14.950;2022-12-28T16:43:21;4.60;99.90
11764;DHT22;5939;56.522;14.950;2022-12-28T16:45:47;4.70;99.90
11764;DHT22;5939;56.522;14.950;2022-12-28T16:48:14;4.60;99.90
11764;DHT22;5939;56.522;14.950;2022-12-28T16:50:40;4.60;99.90
11764;DHT22;5939;56.522;14.950;2022-12-28T16:53:07;4.60;99.90
11764;DHT22;5939;56.522;14.950;2022-12-28T16:55:38;4.70;99.90
11764;DHT22;5939;56.522;14.950;2022-12-28T16:58:06;5.00;99.90
11764;DHT22;5939;56.522;14.950;2022-12-28T17:00:31;5.60;99.90
11764;DHT22;5939;56.522;14.950;2022-12-28T17:02:57;4.60;99.90
11764;DHT22;5939;56.522;14.950;2022-12-28T17:05:23;4.70;99.90
11764;DHT22;5939;56.522;14.950;2022-12-28T17:07:48;4.70;99.90
11764;DHT22;5939;56.522;14.950;2022-12-28T17:10:14;4.80;99.90
11764;DHT22;5939;56.522;14.950;2022-12-28T17:12:40;4.70;99.90
11764;DHT22;5939;56.522;14.950;2022-12-28T17:15:06;5.20;99.90
11764;DHT22;5939;56.522;14.950;2022-12-28T17:17:33;4.60;99.90
11764;DHT22;5939;56.522;14.950;2022-12-28T17:19:59;4.70;99.90
11764;DHT22;5939;56.522;14.950;2022-12-28T17:22:25;4.70;99.90
11764;DHT22;5939;56.522;14.950;2022-12-28T17:24:51;4.70;99.90
11764;DHT22;5939;56.522;14.950;2022-12-28T17:27:17;4.70;99.90
11764;DHT22;5939;56.522;14.950;2022-12-28T17:29:43;4.70;99.90
11764;DHT22;5939;56.522;14.950;2022-12-28T17:32:08;4.70;99.90
11764;DHT22;5939;56.522;14.950;2022-12-28T17:34:34;5.00;99.90
11764;DHT22;5939;56.522;14.950;2022-12-28T17:37:00;4.70;99.90
11764;DHT22;5939;56.522;14.950;2022-12-28T17:39:26;4.80;99.90
11764;DHT22;5939;56.522;14.950;2022-12-28T17:41:51;4.80;99.90
11764;DHT22;5939;56.522;14.950;2022-12-28T17:44:17;4.80;99.90
11764;DHT22;5939;56.522;14.950;2022-12-28T17:46:43;4.90;99.90
11764;DHT22;5939;56.522;14.950;2022-12-28T17:49:13;4.90;99.90
11764;DHT22;5939;56.522;14.950;2022-12-28T17:51:39;5.40;99.90
11764;DHT22;5939;56.522;14.950;2022-12-28T17:54:09;4.80;99.90
11764;DHT22;5939;56.522;14.950;2022-12-28T17:56:35;4.80;99.90
11764;DHT22;5939;56.522;14.950;2022-12-28T17:59:01;4.90;99.90
11764;DHT22;5939;56.522;14.950;2022-12-28T18:01:27;4.80;99.90
11764;DHT22;5939;56.522;14.950;2022-12-28T18:03:53;4.90;99.90
11764;DHT22;5939;56.522;14.950;2022-12-28T18:06:19;4.90;99.90
11764;DHT22;5939;56.522;14.950;2022-12-28T18:08:45;4.90;99.90
11764;DHT22;5939;56.522;14.950;2022-12-28T18:11:11;5.00;99.90
11764;DHT22;5939;56.522;14.950;2022-12-28T18:13:37;4.90;99.90
11764;DHT22;5939;56.522;14.950;2022-12-28T18:16:04;5.60;99.90
11764;DHT22;5939;56.522;14.950;2022-12-28T18:18:30;5.00;99.90
11764;DHT22;5939;56.522;14.950;2022-12-28T18:21:05;4.90;99.90
11764;DHT22;5939;56.522;14.950;2022-12-28T18:23:32;5.00;99.90
11764;DHT22;5939;56.522;14.950;2022-12-28T18:26:08;5.00;99.90
11764;DHT22;5939;56.522;14.950;2022-12-28T18:28:35;5.00;99.90
11764;DHT22;5939;56.522;14.950;2022-12-28T18:31:02;5.00;99.90
11764;DHT22;5939;56.522;14.950;2022-12-28T18:33:29;5.30;99.90
11764;DHT22;5939;56.522;14.950;2022-12-28T18:35:55;5.00;99.90
11764;DHT22;5939;56.522;14.950;2022-12-28T18:38:21;5.00;99.90
11764;DHT22;5939;56.522;14.950;2022-12-28T18:40:54;5.10;99.90
11764;DHT22;5939;56.522;14.950;2022-12-28T18:43:21;5.00;99.90
11764;DHT22;5939;56.522;14.950;2022-12-28T18:45:58;5.40;99.90
11764;DHT22;5939;56.522;14.950;2022-12-28T18:48:24;5.10;99.90
11764;DHT22;5939;56.522;14.950;2022-12-28T18:50:55;5.70;99.90
11764;DHT22;5939;56.522;14.950;2022-12-28T18:53:21;5.10;99.90
11764;DHT22;5939;56.522;14.950;2022-12-28T18:56:05;5.10;99.90
11764;DHT22;5939;56.522;14.950;2022-12-28T18:58:32;5.20;99.90
11764;DHT22;5939;56.522;14.950;2022-12-28T19:01:06;5.20;99.90
11764;DHT22;5939;56.522;14.950;2022-12-28T19:03:33;5.20;99.90
11764;DHT22;5939;56.522;14.950;2022-12-28T19:06:00;5.20;99.90
11764;DHT22;5939;56.522;14.950;2022-12-28T19:08:26;5.20;99.90
11764;DHT22;5939;56.522;14.950;2022-12-28T19:10:52;5.30;99.90
11764;DHT22;5939;56.522;14.950;2022-12-28T19:13:18;5.30;99.90
11764;DHT22;5939;56.522;14.950;2022-12-28T19:15:44;5.20;99.90